createdAt,value
2023-04-18T00:01:21.986Z,8.90
2023-04-18T00:03:39.054Z,9.23
2023-04-18T00:05:56.193Z,8.75
2023-04-18T00:08:13.449Z,9.23
2023-04-18T00:10:30.427Z,9.00
2023-04-18T00:12:48.685Z,8.65
2023-04-18T00:15:05.634Z,8.73
2023-04-18T00:17:22.727Z,9.48
2023-04-18T00:19:39.985Z,9.27
2023-04-18T00:21:56.982Z,9.07
2023-04-18T00:24:14.067Z,9.02
2023-04-18T00:26:31.260Z,8.85
2023-04-18T00:28:49.261Z,8.38
2023-04-18T00:31:06.395Z,8.88
2023-04-18T00:33:25.236Z,8.70
2023-04-18T00:35:42.334Z,9.00
2023-04-18T00:38:00.503Z,9.35
2023-04-18T00:40:17.566Z,9.90
2023-04-18T00:42:34.779Z,8.90
2023-04-18T00:44:51.853Z,9.10
2023-04-18T00:47:09.868Z,9.13
2023-04-18T00:49:26.955Z,9.00
2023-04-18T00:51:44.219Z,9.60
2023-04-18T00:54:02.638Z,9.07
2023-04-18T00:56:19.610Z,9.82
2023-04-18T00:58:36.602Z,8.93
2023-04-18T01:00:53.881Z,9.35
2023-04-18T01:03:11.202Z,9.10
2023-04-18T01:05:28.652Z,9.57
2023-04-18T01:07:45.702Z,10.02
2023-04-18T01:10:03.995Z,9.60
2023-04-18T01:12:20.952Z,9.65
2023-04-18T01:14:38.875Z,9.63
2023-04-18T01:16:55.767Z,9.85
2023-04-18T01:19:12.731Z,9.35
2023-04-18T01:21:30.045Z,9.23
2023-04-18T01:23:48.071Z,9.90
2023-04-18T01:26:06.815Z,9.55
2023-04-18T01:28:23.853Z,9.88
2023-04-18T01:30:41.872Z,9.48
2023-04-18T01:32:58.942Z,9.02
2023-04-18T01:35:16.211Z,9.70
2023-04-18T01:37:33.267Z,8.95
2023-04-18T01:39:50.208Z,9.32
2023-04-18T01:42:07.096Z,9.35
2023-04-18T01:44:24.338Z,9.35
2023-04-18T01:46:42.389Z,9.65
2023-04-18T01:48:59.767Z,9.38
2023-04-18T01:51:18.101Z,10.10
2023-04-18T01:53:35.258Z,10.10
2023-04-18T01:55:52.417Z,9.73
2023-04-18T01:58:10.402Z,9.60
2023-04-18T02:00:27.679Z,9.63
2023-04-18T02:02:44.950Z,9.68
2023-04-18T02:05:02.042Z,8.95
2023-04-18T02:07:19.383Z,9.55
2023-04-18T02:09:36.405Z,10.00
2023-04-18T02:11:53.410Z,9.48
2023-04-18T02:14:10.450Z,9.95
2023-04-18T02:16:27.774Z,9.18
2023-04-18T02:18:44.796Z,9.68
2023-04-18T02:21:02.845Z,9.85
2023-04-18T02:23:21.088Z,9.70
2023-04-18T02:25:38.044Z,9.25
2023-04-18T02:27:55.083Z,10.10
2023-04-18T02:30:12.097Z,9.30
2023-04-18T02:32:29.084Z,9.55
2023-04-18T02:34:46.095Z,9.25
2023-04-18T02:37:04.091Z,9.30
2023-04-18T02:39:21.151Z,9.05
2023-04-18T02:41:38.401Z,9.45
2023-04-18T02:43:55.725Z,9.95
2023-04-18T02:46:13.739Z,10.60
2023-04-18T02:48:30.766Z,8.93
2023-04-18T02:50:48.113Z,8.93
2023-04-18T02:53:05.201Z,8.75
2023-04-18T02:55:22.120Z,9.50
2023-04-18T02:57:39.070Z,10.15
2023-04-18T02:59:56.136Z,9.63
2023-04-18T03:02:13.482Z,9.10
2023-04-18T03:04:30.566Z,9.15
2023-04-18T03:06:47.433Z,8.75
2023-04-18T03:09:04.438Z,9.85
2023-04-18T03:11:22.827Z,9.13
2023-04-18T03:13:39.897Z,9.68
2023-04-18T03:15:56.853Z,9.95
2023-04-18T03:18:15.262Z,10.23
2023-04-18T03:20:32.536Z,9.63
2023-04-18T03:22:49.597Z,10.18
2023-04-18T03:25:06.627Z,9.20
2023-04-18T03:27:23.636Z,9.68
2023-04-18T03:29:40.716Z,10.10
2023-04-18T03:31:57.923Z,10.40
2023-04-18T03:34:15.177Z,10.32
2023-04-18T03:36:32.645Z,10.73
2023-04-18T03:38:49.970Z,10.35
2023-04-18T03:41:07.992Z,10.13
2023-04-18T03:43:25.040Z,10.32
2023-04-18T03:45:43.014Z,9.85
2023-04-18T03:48:00.439Z,10.27
2023-04-18T03:50:17.514Z,9.73
2023-04-18T03:52:34.535Z,10.35
2023-04-18T03:54:51.596Z,10.75
2023-04-18T03:57:08.611Z,9.55
2023-04-18T03:59:26.671Z,10.55
2023-04-18T04:01:43.633Z,10.00
2023-04-18T04:04:00.837Z,10.90
2023-04-18T04:06:17.952Z,10.57
2023-04-18T04:08:34.970Z,10.20
2023-04-18T04:10:51.993Z,10.82
2023-04-18T04:13:08.970Z,10.55
2023-04-18T04:15:25.903Z,10.48
2023-04-18T04:17:42.843Z,10.45
2023-04-18T04:19:59.897Z,10.38
2023-04-18T04:22:16.797Z,10.77
2023-04-18T04:24:33.915Z,10.95
2023-04-18T04:26:51.882Z,10.90
2023-04-18T04:29:08.920Z,10.95
2023-04-18T04:31:25.935Z,10.95
2023-04-18T04:33:43.066Z,10.40
2023-04-18T04:36:00.112Z,11.00
2023-04-18T04:38:17.156Z,10.25
2023-04-18T04:40:34.058Z,9.82
2023-04-18T04:42:51.331Z,11.27
2023-04-18T04:45:08.554Z,11.98
2023-04-18T04:47:25.602Z,11.13
2023-04-18T04:49:42.624Z,10.75
2023-04-18T04:52:01.446Z,10.20
2023-04-18T04:54:18.989Z,10.80
2023-04-18T04:56:36.005Z,11.65
2023-04-18T04:58:52.969Z,11.88
2023-04-18T05:01:10.309Z,10.73
2023-04-18T05:03:27.486Z,11.40
2023-04-18T05:05:44.587Z,10.43
2023-04-18T05:08:01.554Z,10.55
2023-04-18T05:10:18.919Z,16.30
2023-04-18T05:12:35.970Z,17.85
2023-04-18T05:14:53.271Z,12.20
2023-04-18T05:17:10.260Z,12.43
2023-04-18T05:19:27.554Z,13.20
2023-04-18T05:21:45.427Z,12.90
2023-04-18T05:24:02.464Z,14.60
2023-04-18T05:26:20.461Z,15.05
2023-04-18T05:28:37.696Z,13.10
2023-04-18T05:30:54.808Z,14.38
2023-04-18T05:33:11.770Z,18.30
2023-04-18T05:35:28.814Z,17.23
2023-04-18T05:37:46.209Z,17.83
2023-04-18T05:40:03.271Z,15.77
2023-04-18T05:42:20.535Z,13.90
2023-04-18T05:44:38.605Z,13.88
2023-04-18T05:46:55.886Z,14.40
2023-04-18T05:49:12.955Z,13.23
2023-04-18T05:51:29.870Z,13.23
2023-04-18T05:53:46.885Z,21.15
2023-04-18T05:56:03.968Z,20.48
2023-04-18T05:58:20.967Z,17.27
2023-04-18T06:00:38.988Z,15.73
2023-04-18T06:02:56.466Z,14.80
2023-04-18T06:05:13.857Z,16.75
2023-04-18T06:07:31.131Z,15.88
2023-04-18T06:09:48.135Z,14.50
2023-04-18T06:12:05.152Z,14.90
2023-04-18T06:14:22.128Z,15.27
2023-04-18T06:16:39.227Z,19.02
2023-04-18T06:18:57.573Z,15.57
2023-04-18T06:21:15.865Z,14.35
2023-04-18T06:23:32.947Z,13.77
2023-04-18T06:25:50.872Z,13.57
2023-04-18T06:28:08.188Z,14.18
2023-04-18T06:30:25.451Z,16.52
2023-04-18T06:32:42.845Z,14.73
2023-04-18T06:34:59.860Z,15.50
2023-04-18T06:37:17.896Z,15.60
2023-04-18T06:39:35.234Z,14.80
2023-04-18T06:41:52.388Z,13.98
2023-04-18T06:44:09.326Z,15.20
2023-04-18T06:46:27.408Z,15.15
2023-04-18T06:48:44.760Z,15.23
2023-04-18T06:51:02.807Z,15.27
2023-04-18T06:53:19.706Z,16.55
2023-04-18T06:55:36.977Z,16.33
2023-04-18T06:57:54.610Z,15.07
2023-04-18T07:00:11.700Z,14.73
2023-04-18T07:02:28.630Z,13.85
2023-04-18T07:04:45.763Z,14.02
2023-04-18T07:07:02.706Z,14.55
2023-04-18T07:09:19.654Z,15.02
2023-04-18T07:11:36.604Z,13.73
2023-04-18T07:13:53.667Z,14.88
2023-04-18T07:16:11.867Z,13.77
2023-04-18T07:18:37.382Z,13.88
2023-04-18T07:20:55.566Z,13.65
2023-04-18T07:23:12.664Z,13.57
2023-04-18T07:25:29.714Z,12.70
2023-04-18T07:27:47.653Z,12.00
2023-04-18T07:30:04.962Z,13.45
2023-04-18T07:32:22.916Z,12.73
2023-04-18T07:34:40.208Z,12.77
2023-04-18T07:36:57.493Z,12.73
2023-04-18T07:39:14.692Z,11.93
2023-04-18T07:41:32.557Z,12.88
2023-04-18T07:43:49.611Z,12.50
2023-04-18T07:46:06.635Z,12.48
2023-04-18T07:48:24.549Z,11.13
2023-04-18T07:50:41.776Z,11.45
2023-04-18T07:52:59.058Z,12.40
2023-04-18T07:55:16.139Z,12.50
2023-04-18T07:57:34.172Z,12.10
2023-04-18T07:59:51.147Z,12.40
2023-04-18T08:02:08.456Z,12.18
2023-04-18T08:04:28.160Z,11.85
2023-04-18T08:06:46.833Z,12.20
2023-04-18T08:09:03.856Z,12.05
2023-04-18T08:11:20.937Z,12.77
2023-04-18T08:13:38.103Z,12.32
2023-04-18T08:15:55.085Z,13.07
2023-04-18T08:18:12.308Z,12.02
2023-04-18T08:20:29.241Z,12.68
2023-04-18T08:23:04.699Z,12.18
2023-04-18T08:25:23.731Z,12.98
2023-04-18T08:27:40.647Z,13.05
2023-04-18T08:29:57.684Z,13.10
2023-04-18T08:32:14.721Z,12.30
2023-04-18T08:34:31.653Z,13.18
2023-04-18T08:36:48.585Z,12.68
2023-04-18T08:39:05.554Z,13.23
2023-04-18T08:41:22.870Z,13.60
2023-04-18T08:43:39.914Z,12.75
2023-04-18T08:45:56.987Z,13.60
2023-04-18T08:48:13.893Z,13.68
2023-04-18T08:50:30.914Z,12.77
2023-04-18T08:52:48.239Z,12.95
2023-04-18T08:55:05.272Z,12.68
2023-04-18T08:57:22.431Z,12.82
2023-04-18T08:59:39.483Z,12.68
2023-04-18T09:01:56.902Z,12.88
2023-04-18T09:04:14.401Z,12.73
2023-04-18T09:06:31.836Z,12.55
2023-04-18T09:08:48.866Z,12.60
2023-04-18T09:11:06.123Z,13.23
2023-04-18T09:13:24.534Z,12.40
2023-04-18T09:15:41.537Z,13.30
2023-04-18T09:17:58.656Z,12.52
2023-04-18T09:20:15.793Z,12.50
2023-04-18T09:22:32.816Z,12.57
2023-04-18T09:24:50.815Z,12.60
2023-04-18T09:27:07.876Z,12.52
2023-04-18T09:29:25.894Z,13.48
2023-04-18T09:31:42.952Z,12.00
2023-04-18T09:34:01.158Z,12.48
2023-04-18T09:36:18.557Z,13.02
2023-04-18T09:38:35.490Z,14.13
2023-04-18T09:40:52.562Z,12.88
2023-04-18T09:43:09.505Z,13.73
2023-04-18T09:45:27.623Z,13.02
2023-04-18T09:47:45.808Z,12.40
2023-04-18T09:50:02.826Z,12.23
2023-04-18T09:52:19.736Z,13.45
2023-04-18T09:54:36.741Z,13.95
2023-04-18T09:56:54.006Z,11.80
2023-04-18T09:59:12.169Z,15.38
2023-04-18T10:01:29.420Z,18.70
2023-04-18T10:03:46.566Z,14.07
2023-04-18T10:06:03.686Z,12.80
2023-04-18T10:08:21.041Z,13.45
2023-04-18T10:10:39.177Z,11.98
2023-04-18T10:12:56.330Z,12.30
2023-04-18T10:15:14.698Z,13.25
2023-04-18T10:17:31.757Z,12.80
2023-04-18T10:19:49.017Z,11.13
2023-04-18T10:22:07.348Z,12.32
2023-04-18T10:24:24.427Z,11.43
2023-04-18T10:26:41.691Z,12.52
2023-04-18T10:28:58.772Z,12.43
2023-04-18T10:31:16.888Z,12.57
2023-04-18T10:33:33.997Z,12.45
2023-04-18T10:35:51.041Z,12.60
2023-04-18T10:38:08.060Z,12.48
2023-04-18T10:40:25.323Z,12.02
2023-04-18T10:42:42.547Z,12.30
2023-04-18T10:44:59.454Z,12.43
2023-04-18T10:47:17.710Z,12.25
2023-04-18T10:49:34.948Z,11.82
2023-04-18T10:51:52.569Z,12.57
2023-04-18T10:54:09.600Z,11.77
2023-04-18T10:56:26.570Z,12.20
2023-04-18T10:58:44.048Z,12.52
2023-04-18T11:01:01.029Z,11.18
2023-04-18T11:03:18.333Z,11.80
2023-04-18T11:05:35.454Z,11.90
2023-04-18T11:07:53.229Z,11.52
2023-04-18T11:10:10.154Z,11.32
2023-04-18T11:12:27.048Z,11.27
2023-04-18T11:14:44.133Z,11.98
2023-04-18T11:17:01.245Z,11.82
2023-04-18T11:19:18.553Z,11.95
2023-04-18T11:21:35.522Z,11.07
2023-04-18T11:23:52.575Z,11.48
2023-04-18T11:26:10.382Z,12.15
2023-04-18T11:28:27.425Z,13.40
2023-04-18T11:30:44.433Z,11.98
2023-04-18T11:33:01.412Z,11.80
2023-04-18T11:35:18.380Z,11.68
2023-04-18T11:37:35.392Z,10.70
2023-04-18T11:39:52.279Z,10.30
2023-04-18T11:42:09.360Z,11.30
2023-04-18T11:44:26.331Z,10.82
2023-04-18T11:46:43.568Z,10.15
2023-04-18T11:49:00.633Z,10.35
2023-04-18T11:51:17.673Z,10.77
2023-04-18T11:53:34.770Z,10.68
2023-04-18T11:55:51.755Z,10.55
2023-04-18T11:58:09.164Z,10.70
2023-04-18T12:00:26.131Z,10.73
2023-04-18T12:02:43.297Z,9.75
2023-04-18T12:05:00.563Z,9.98
2023-04-18T12:07:17.840Z,9.40
2023-04-18T12:09:35.119Z,10.15
2023-04-18T12:11:52.158Z,9.98
2023-04-18T12:14:10.104Z,10.20
2023-04-18T12:16:27.431Z,10.07
2023-04-18T12:18:44.758Z,9.77
2023-04-18T12:21:01.705Z,10.95
2023-04-18T12:23:18.631Z,10.70
2023-04-18T12:25:35.577Z,10.70
2023-04-18T12:27:52.795Z,15.40
2023-04-18T12:30:09.833Z,12.05
2023-04-18T12:32:26.869Z,10.23
2023-04-18T12:34:46.067Z,10.05
2023-04-18T12:37:03.360Z,10.23
2023-04-18T12:39:20.386Z,10.25
2023-04-18T12:41:38.550Z,9.50
2023-04-18T12:43:55.584Z,10.25
2023-04-18T12:46:12.596Z,10.38
2023-04-18T12:48:29.625Z,9.77
2023-04-18T12:50:47.657Z,10.32
2023-04-18T12:53:04.929Z,10.18
2023-04-18T12:55:21.942Z,10.07
2023-04-18T12:57:39.251Z,9.43
2023-04-18T12:59:56.537Z,9.15
2023-04-18T13:02:13.552Z,13.23
2023-04-18T13:04:31.105Z,9.98
2023-04-18T13:06:48.423Z,9.35
2023-04-18T13:09:05.432Z,10.10
2023-04-18T13:11:23.448Z,8.98
2023-04-18T13:13:40.352Z,9.40
2023-04-18T13:15:57.686Z,8.15
2023-04-18T13:18:14.907Z,8.63
2023-04-18T13:20:31.926Z,9.35
2023-04-18T13:22:49.225Z,8.88
2023-04-18T13:25:06.508Z,8.65
2023-04-18T13:27:24.795Z,7.72
2023-04-18T13:29:41.787Z,9.05
2023-04-18T13:31:58.784Z,8.43
2023-04-18T13:34:16.044Z,8.20
2023-04-18T13:36:33.304Z,7.57
2023-04-18T13:38:50.806Z,7.60
2023-04-18T13:41:12.803Z,7.20
2023-04-18T13:43:30.519Z,7.32
2023-04-18T13:45:48.531Z,7.43
2023-04-18T13:48:05.668Z,8.05
2023-04-18T13:50:23.758Z,7.15
2023-04-18T13:52:41.035Z,7.32
2023-04-18T13:54:58.248Z,8.23
2023-04-18T13:57:15.273Z,7.57
2023-04-18T13:59:32.364Z,7.30
2023-04-18T14:01:49.507Z,8.18
2023-04-18T14:04:07.621Z,7.97
2023-04-18T14:06:24.673Z,7.63
2023-04-18T14:08:41.719Z,7.60
2023-04-18T14:10:58.782Z,7.90
2023-04-18T14:13:16.054Z,7.40
2023-04-18T14:15:33.329Z,7.55
2023-04-18T14:17:50.268Z,7.10
2023-04-18T14:20:07.586Z,7.00
2023-04-18T14:22:24.592Z,7.30
2023-04-18T14:24:41.586Z,7.10
2023-04-18T14:26:58.831Z,7.15
2023-04-18T14:29:15.965Z,6.53
2023-04-18T14:31:33.194Z,7.18
2023-04-18T14:33:50.486Z,6.60
2023-04-18T14:36:07.482Z,6.80
2023-04-18T14:38:24.855Z,6.88
2023-04-18T14:40:41.795Z,6.78
2023-04-18T14:42:59.073Z,6.43
2023-04-18T14:45:16.009Z,6.70
2023-04-18T14:47:32.909Z,6.18
2023-04-18T14:49:49.835Z,6.20
2023-04-18T14:52:06.859Z,6.55
2023-04-18T14:54:23.844Z,6.30
2023-04-18T14:56:40.966Z,6.40
2023-04-18T14:58:58.682Z,6.05
2023-04-18T15:01:16.045Z,6.10
2023-04-18T15:03:33.187Z,5.65
2023-04-18T15:05:50.487Z,5.55
2023-04-18T15:08:07.693Z,5.63
2023-04-18T15:10:24.630Z,4.97
2023-04-18T15:12:41.819Z,5.20
2023-04-18T15:14:58.847Z,4.85
2023-04-18T15:17:15.853Z,5.25
2023-04-18T15:19:33.117Z,4.93
2023-04-18T15:21:50.101Z,4.97
2023-04-18T15:24:07.170Z,4.40
2023-04-18T15:26:24.489Z,5.47
2023-04-18T15:28:42.710Z,4.90
2023-04-18T15:30:59.741Z,4.60
2023-04-18T15:33:16.793Z,8.10
2023-04-18T15:35:33.852Z,9.13
2023-04-18T15:37:53.253Z,7.07
2023-04-18T15:40:10.234Z,4.97
2023-04-18T15:42:27.288Z,4.55
2023-04-18T15:44:44.519Z,4.70
2023-04-18T15:47:01.583Z,4.75
2023-04-18T15:49:18.568Z,4.10
2023-04-18T15:51:35.698Z,4.43
2023-04-18T15:53:52.941Z,4.45
2023-04-18T15:56:09.962Z,4.57
2023-04-18T15:58:26.969Z,4.82
2023-04-18T16:00:44.051Z,4.72
2023-04-18T16:03:01.113Z,5.10
2023-04-18T16:05:18.269Z,5.07
2023-04-18T16:07:36.206Z,5.68
2023-04-18T16:09:53.568Z,5.15
2023-04-18T16:12:10.617Z,5.43
2023-04-18T16:14:27.600Z,5.15
2023-04-18T16:16:44.943Z,5.60
2023-04-18T16:19:02.021Z,5.85
2023-04-18T16:21:19.046Z,5.55
2023-04-18T16:23:36.030Z,5.70
2023-04-18T16:25:52.977Z,5.63
2023-04-18T16:28:10.272Z,5.45
2023-04-18T16:30:27.598Z,6.15
2023-04-18T16:32:44.708Z,5.40
2023-04-18T16:35:01.812Z,5.78
2023-04-18T16:37:18.932Z,5.63
2023-04-18T16:39:35.969Z,6.03
2023-04-18T16:41:53.212Z,5.55
2023-04-18T16:44:11.586Z,5.82
2023-04-18T16:46:28.721Z,6.15
2023-04-18T16:48:46.712Z,6.70
2023-04-18T16:51:04.027Z,7.43
2023-04-18T16:53:22.250Z,7.63
2023-04-18T16:55:39.321Z,7.90
2023-04-18T16:57:56.539Z,7.10
2023-04-18T17:00:13.492Z,6.47
2023-04-18T17:02:31.012Z,6.60
2023-04-18T17:04:48.475Z,6.70
2023-04-18T17:07:05.412Z,6.20
2023-04-18T17:09:22.688Z,6.70
2023-04-18T17:11:39.880Z,7.28
2023-04-18T17:13:56.867Z,6.80
2023-04-18T17:16:15.093Z,7.20
2023-04-18T17:18:32.350Z,7.70
2023-04-18T17:20:49.400Z,7.38
2023-04-18T17:23:06.724Z,7.68
2023-04-18T17:25:24.069Z,7.43
2023-04-18T17:27:41.072Z,7.85
2023-04-18T17:29:59.318Z,7.68
2023-04-18T17:32:16.658Z,8.38
2023-04-18T17:34:33.593Z,8.13
2023-04-18T17:36:50.820Z,8.43
2023-04-18T17:39:07.845Z,7.90
2023-04-18T17:41:25.897Z,8.07
2023-04-18T17:43:42.952Z,8.18
2023-04-18T17:46:01.307Z,8.57
2023-04-18T17:48:18.681Z,8.32
2023-04-18T17:50:36.749Z,7.90
2023-04-18T17:52:54.052Z,7.88
2023-04-18T17:55:11.016Z,8.30
2023-04-18T17:57:27.918Z,8.60
2023-04-18T17:59:45.193Z,8.18
2023-04-18T18:02:02.387Z,8.43
2023-04-18T18:04:19.730Z,7.97
2023-04-18T18:06:37.894Z,8.32
2023-04-18T18:08:55.270Z,8.25
2023-04-18T18:11:12.178Z,8.13
2023-04-18T18:13:29.154Z,8.80
2023-04-18T18:15:46.350Z,8.63
2023-04-18T18:18:03.408Z,8.98
2023-04-18T18:20:20.545Z,9.65
2023-04-18T18:22:37.808Z,9.25
2023-04-18T18:24:55.066Z,8.73
2023-04-18T18:27:12.023Z,9.15
2023-04-18T18:29:29.294Z,8.68
2023-04-18T18:31:46.596Z,9.40
2023-04-18T18:34:03.750Z,8.48
2023-04-18T18:36:20.852Z,8.80
2023-04-18T18:38:38.902Z,8.50
2023-04-18T18:40:55.785Z,8.40
2023-04-18T18:43:12.761Z,9.23
2023-04-18T18:45:29.882Z,9.75
2023-04-18T18:47:46.841Z,8.90
2023-04-18T18:50:04.813Z,9.80
2023-04-18T18:52:21.784Z,10.05
2023-04-18T18:54:38.926Z,9.27
2023-04-18T18:56:55.948Z,9.52
2023-04-18T18:59:13.351Z,9.07
2023-04-18T19:01:30.569Z,8.90
2023-04-18T19:03:47.827Z,9.38
2023-04-18T19:06:05.026Z,8.43
2023-04-18T19:08:22.116Z,8.40
2023-04-18T19:10:39.208Z,8.32
2023-04-18T19:12:56.543Z,8.57
2023-04-18T19:15:13.497Z,8.43
2023-04-18T19:17:30.502Z,7.97
2023-04-18T19:19:47.633Z,7.88
2023-04-18T19:22:05.968Z,8.50
2023-04-18T19:24:23.037Z,7.93
2023-04-18T19:26:40.039Z,7.50
2023-04-18T19:28:57.027Z,8.23
2023-04-18T19:31:14.086Z,7.60
2023-04-18T19:33:32.010Z,8.10
2023-04-18T19:35:49.316Z,8.18
2023-04-18T19:38:06.566Z,7.82
2023-04-18T19:40:24.678Z,7.70
2023-04-18T19:42:41.766Z,7.88
2023-04-18T19:44:58.791Z,7.30
2023-04-18T19:47:15.839Z,7.70
2023-04-18T19:49:33.440Z,7.57
2023-04-18T19:51:51.422Z,7.80
2023-04-18T19:54:08.427Z,7.63
2023-04-18T19:56:25.402Z,8.05
2023-04-18T19:58:42.506Z,7.85
2023-04-18T20:00:59.586Z,6.85
2023-04-18T20:03:16.778Z,7.70
2023-04-18T20:05:34.101Z,8.43
2023-04-18T20:07:51.218Z,7.53
2023-04-18T20:10:08.463Z,8.25
2023-04-18T20:12:26.503Z,7.38
2023-04-18T20:14:43.494Z,8.27
2023-04-18T20:17:00.609Z,7.90
2023-04-18T20:19:17.801Z,8.10
2023-04-18T20:21:35.141Z,8.07
2023-04-18T20:23:52.332Z,8.32
2023-04-18T20:26:09.696Z,8.18
2023-04-18T20:28:26.783Z,7.70
2023-04-18T20:30:46.851Z,8.75
2023-04-18T20:33:04.195Z,7.88
2023-04-18T20:35:21.560Z,8.23
2023-04-18T20:37:38.855Z,7.85
2023-04-18T20:39:55.918Z,8.82
2023-04-18T20:42:12.884Z,8.68
2023-04-18T20:44:29.866Z,8.23
2023-04-18T20:46:46.915Z,9.10
2023-04-18T20:49:03.812Z,7.88
2023-04-18T20:51:21.092Z,9.18
2023-04-18T20:53:38.073Z,8.68
2023-04-18T20:55:55.372Z,8.73
2023-04-18T20:58:12.700Z,8.50
2023-04-18T21:00:29.764Z,9.13
2023-04-18T21:02:47.036Z,8.77
2023-04-18T21:05:04.115Z,8.63
2023-04-18T21:07:21.381Z,8.88
2023-04-18T21:09:38.689Z,9.77
2023-04-18T21:11:56.010Z,9.93
2023-04-18T21:14:13.307Z,9.35
2023-04-18T21:16:30.810Z,9.25
2023-04-18T21:18:48.242Z,9.80
2023-04-18T21:21:05.243Z,9.95
2023-04-18T21:23:22.230Z,10.10
2023-04-18T21:25:39.457Z,10.25
2023-04-18T21:27:56.783Z,10.77
2023-04-18T21:30:13.870Z,10.43
2023-04-18T21:32:30.900Z,10.02
2023-04-18T21:34:48.012Z,10.45
2023-04-18T21:37:05.330Z,10.57
2023-04-18T21:39:23.321Z,9.43
2023-04-18T21:41:40.391Z,9.93
2023-04-18T21:43:57.685Z,10.45
2023-04-18T21:46:14.720Z,10.57
2023-04-18T21:48:32.180Z,10.38
2023-04-18T21:50:49.119Z,10.25
2023-04-18T21:53:06.478Z,10.73
2023-04-18T21:55:23.413Z,9.95
2023-04-18T21:57:40.432Z,10.00
2023-04-18T21:59:57.675Z,11.18
2023-04-18T22:02:15.831Z,10.52
2023-04-18T22:04:33.189Z,10.23
2023-04-18T22:06:50.615Z,10.95
2023-04-18T22:09:08.013Z,10.48
2023-04-18T22:11:25.159Z,10.25
2023-04-18T22:13:42.276Z,11.10
2023-04-18T22:16:00.334Z,10.25
2023-04-18T22:18:17.363Z,10.93
2023-04-18T22:20:34.362Z,10.27
2023-04-18T22:22:51.682Z,10.27
2023-04-18T22:25:08.735Z,11.43
2023-04-18T22:27:26.094Z,10.43
2023-04-18T22:29:44.384Z,11.23
2023-04-18T22:32:01.622Z,11.57
2023-04-18T22:34:19.143Z,10.80
2023-04-18T22:36:36.148Z,11.25
2023-04-18T22:38:53.436Z,11.45
2023-04-18T22:41:10.340Z,11.27
2023-04-18T22:43:28.457Z,10.93
2023-04-18T22:45:45.494Z,11.23
2023-04-18T22:48:02.501Z,11.98
2023-04-18T22:50:19.641Z,13.15
2023-04-18T22:52:37.594Z,11.82
2023-04-18T22:54:54.740Z,11.38
2023-04-18T22:57:11.713Z,11.65
2023-04-18T22:59:28.721Z,11.73
2023-04-18T23:01:45.914Z,11.27
2023-04-18T23:04:04.621Z,11.23
2023-04-18T23:06:22.159Z,10.77
2023-04-18T23:08:39.511Z,10.60
2023-04-18T23:10:56.482Z,10.48
2023-04-18T23:13:13.633Z,10.52
2023-04-18T23:15:30.788Z,10.38
2023-04-18T23:17:48.124Z,10.25
2023-04-18T23:20:05.242Z,9.90
2023-04-18T23:22:23.291Z,10.30
2023-04-18T23:24:40.651Z,10.38
2023-04-18T23:26:57.688Z,10.00
2023-04-18T23:29:14.811Z,10.13
2023-04-18T23:31:31.870Z,9.95
2023-04-18T23:33:49.134Z,9.70
2023-04-18T23:36:06.042Z,10.35
2023-04-18T23:38:23.389Z,10.02
2023-04-18T23:40:41.403Z,8.85
2023-04-18T23:42:58.334Z,9.13
2023-04-18T23:45:15.558Z,9.68
2023-04-18T23:47:32.885Z,9.82
2023-04-18T23:49:49.966Z,7.70
2023-04-18T23:52:07.316Z,9.23
2023-04-18T23:54:25.750Z,9.20
2023-04-18T23:56:42.843Z,9.10
2023-04-18T23:58:59.841Z,9.18
